Lake Worth, FL

11:20 AM EST on December 09, 2016 (GMT -0500)
Island Estates | | Change Station

Elev 45 ft 26.57 °N, 80.08 °W | Updated 4 minutes ago

Mostly Cloudy
Mostly Cloudy
70.1 °F
Feels Like 70.1 °F
N
7.0
Wind Variable Wind from NW
Gusts 10.0 mph

Today
High -- | Low -- °F
--% Chance of Precip.
Yesterday
High -- | Low -- °F
Precip. -- in
Pressure 30.24 in
Visibility 10.0 miles
Clouds Scattered Clouds 1500 ft
Mostly Cloudy 8500 ft
Dew Point 65 °F
Humidity 83%
Rainfall 0.00 in
Snow Depth Not available.
6:57 AM 5:28 PM
Waxing Gibbous, 75% visible
METAR KPBI 091553Z 35011G19KT 10SM SCT015 BKN085 20/17 A3024 RMK AO2 SLP239 T02000167
Pressure 30.24 in
Visibility 10.0 miles
Clouds Scattered Clouds 1500 ft
Mostly Cloudy 8500 ft
Dew Point 65 °F
Humidity 83%
Rainfall 0.00 in
Snow Depth Not available.
6:57 AM 5:28 PM
Waxing Gibbous, 75% visible
METAR KPBI 091553Z 35011G19KT 10SM SCT015 BKN085 20/17 A3024 RMK AO2 SLP239 T02000167

10-Day Weather Forecast

Almanac

Astronomy

Dec. 09, 2016 Rise Set
Actual Time
Civil Twilight
Nautical Twilight
Astronomical Twilight
Moon
Length of Visible Light
Length of Day
Tomorrow will be .
, % of the Moon is Illuminated

Today's Extremes

State Highs State Lows

Community

WunderPhotos

Upload Photos

1,956,462 photos uploaded!

WunderBlog® & News

Nearby

Air Quality

  Air Quality AQ Index Pollutant
Not available.

Snow Depth

Station Depth Elevation

Earthquake Activity

City Distance Mag. Time & Date
Minimum magnitude displayed is 2.5.

Coastal Water Temperatures

Place Temperature

Stations

Nearby Weather Stations

Station Location Temp. Windchill Dew Point Humidity Wind Precip. Elev Updated Type
                   

Watches & Warnings

There are currently no watches in effect.